WZZ2498 LPMA-LHBP
Flight info
| Callsign | WZZ2498 |
|---|---|
| Flight time | N/A |
| Altitude | 32000 |
| Route | DEGUN DCT GALPA DCT NARTA DCT UREDI DCT DIPOL DCT RBO DCT PINAR DCT SEGRE DCT BRITO DCT PISUS DCT PONEN DCT SEROX DCT VILAR DCT KARES DCT BISES DCT BCN DCT SALON DCT AGENA DCT BODEQ DCT LUMAS DCT NOSTA DCT NOPMU DCT OTMUV DCT KALMO DCT BARPI DCT OTFOX DCT KOPRY DCT ULZAK |
| Aircraft | A21N/M-SDE1E2E3FGIJ1J4RWXY/LB1 |
Departure
| Time | N/A |
|---|---|
| Airport | Cristiano Ronaldo International Airport (LPMA) |
Arrival
| Time | 2026-05-04 13:05 |
|---|---|
| Airport | Budapest Liszt Ferenc International Airport (LHBP) |
| Time | Latitude | Longitude | Altitude | Speed | Heading |
|---|---|---|---|---|---|
| 2026-05-04 11:22 | 44.19008 | 9.03228 | 36149 ft | 475 kts | 73° |
| 2026-05-04 11:22 | 44.19980 | 9.07626 | 36151 ft | 475 kts | 71° |
| 2026-05-04 11:23 | 44.21697 | 9.14886 | 36153 ft | 473 kts | 71° |
| 2026-05-04 11:25 | 44.28844 | 9.45271 | 36158 ft | 471 kts | 72° |
| 2026-05-04 11:25 | 44.30861 | 9.53953 | 36141 ft | 469 kts | 71° |
| 2026-05-04 11:27 | 44.43035 | 9.91065 | 36143 ft | 465 kts | 63° |
| 2026-05-04 11:28 | 44.45828 | 9.99233 | 36140 ft | 466 kts | 63° |
| 2026-05-04 11:28 | 44.48592 | 10.07363 | 36137 ft | 465 kts | 64° |
| 2026-05-04 11:29 | 44.51364 | 10.15558 | 36133 ft | 465 kts | 64° |
| 2026-05-04 11:29 | 44.54137 | 10.23746 | 36131 ft | 463 kts | 64° |
| 2026-05-04 11:33 | 44.73119 | 10.80364 | 36108 ft | 456 kts | 64° |
| 2026-05-04 11:33 | 44.75789 | 10.88451 | 36105 ft | 456 kts | 64° |
| 2026-05-04 11:34 | 44.78440 | 10.96545 | 36106 ft | 456 kts | 65° |
| 2026-05-04 11:34 | 44.81091 | 11.04655 | 36103 ft | 456 kts | 64° |
| 2026-05-04 11:35 | 44.83769 | 11.12753 | 36108 ft | 456 kts | 64° |
| 2026-05-04 11:35 | 44.86410 | 11.20816 | 36108 ft | 457 kts | 65° |
| 2026-05-04 11:36 | 44.89053 | 11.28966 | 36104 ft | 457 kts | 65° |
| 2026-05-04 11:36 | 44.91701 | 11.37113 | 36106 ft | 459 kts | 65° |
| 2026-05-04 11:37 | 44.94352 | 11.45369 | 36107 ft | 463 kts | 65° |
| 2026-05-04 11:37 | 44.97008 | 11.53644 | 36100 ft | 462 kts | 65° |
| 2026-05-04 11:38 | 44.99636 | 11.61843 | 36107 ft | 461 kts | 65° |
| 2026-05-04 11:38 | 45.02282 | 11.70081 | 36108 ft | 460 kts | 65° |
| 2026-05-04 11:39 | 45.04923 | 11.78321 | 36108 ft | 460 kts | 65° |
| 2026-05-04 11:41 | 45.14065 | 12.07176 | 36112 ft | 460 kts | 66° |
| 2026-05-04 11:41 | 45.16680 | 12.15445 | 36113 ft | 459 kts | 66° |
| 2026-05-04 11:42 | 45.19280 | 12.23714 | 36111 ft | 459 kts | 66° |
| 2026-05-04 11:42 | 45.21860 | 12.31933 | 36110 ft | 459 kts | 66° |
| 2026-05-04 11:43 | 45.24444 | 12.40225 | 36111 ft | 459 kts | 66° |
| 2026-05-04 11:43 | 45.27022 | 12.48504 | 36111 ft | 459 kts | 66° |
| 2026-05-04 11:44 | 45.29592 | 12.56793 | 36114 ft | 458 kts | 66° |
| 2026-05-04 11:44 | 45.32132 | 12.65033 | 36110 ft | 458 kts | 66° |
| 2026-05-04 11:45 | 45.34681 | 12.73323 | 36111 ft | 458 kts | 66° |
| 2026-05-04 11:45 | 45.37216 | 12.81634 | 36110 ft | 458 kts | 66° |
| 2026-05-04 11:46 | 45.39746 | 12.89954 | 36105 ft | 458 kts | 66° |
| 2026-05-04 11:46 | 45.42281 | 12.98266 | 36111 ft | 458 kts | 66° |
| 2026-05-04 11:47 | 45.44793 | 13.06524 | 36107 ft | 458 kts | 66° |
| 2026-05-04 11:47 | 45.47315 | 13.14838 | 36107 ft | 457 kts | 66° |
| 2026-05-04 11:48 | 45.49822 | 13.23168 | 36110 ft | 457 kts | 66° |
| 2026-05-04 11:48 | 45.52330 | 13.31494 | 35806 ft | 456 kts | 66° |
| 2026-05-04 11:48 | 45.53588 | 13.35650 | 35567 ft | 455 kts | 66° |
| 2026-05-04 11:49 | 45.54824 | 13.39742 | 35316 ft | 455 kts | 66° |
| 2026-05-04 11:49 | 45.56069 | 13.43879 | 35109 ft | 454 kts | 66° |
| 2026-05-04 11:49 | 45.57307 | 13.48022 | 35078 ft | 455 kts | 66° |
| 2026-05-04 11:50 | 45.59401 | 13.56549 | 35106 ft | 457 kts | 74° |
| 2026-05-04 11:50 | 45.61036 | 13.65312 | 35112 ft | 457 kts | 75° |
| 2026-05-04 11:51 | 45.62728 | 13.73990 | 35113 ft | 456 kts | 73° |
| 2026-05-04 11:51 | 45.64519 | 13.82681 | 35110 ft | 454 kts | 72° |
| 2026-05-04 11:52 | 45.66295 | 13.91345 | 35112 ft | 454 kts | 72° |
| 2026-05-04 11:52 | 45.68069 | 14.00002 | 35111 ft | 454 kts | 72° |
| 2026-05-04 11:53 | 45.69815 | 14.08621 | 35113 ft | 454 kts | 72° |
| 2026-05-04 11:53 | 45.71579 | 14.17330 | 35111 ft | 456 kts | 73° |
| 2026-05-04 11:55 | 45.78527 | 14.52058 | 35087 ft | 454 kts | 72° |
| 2026-05-04 11:56 | 45.80257 | 14.60747 | 35095 ft | 454 kts | 72° |
| 2026-05-04 11:56 | 45.81979 | 14.69460 | 35072 ft | 454 kts | 73° |
| 2026-05-04 11:57 | 45.83681 | 14.78165 | 35081 ft | 452 kts | 73° |
| 2026-05-04 11:57 | 45.85364 | 14.86795 | 35071 ft | 452 kts | 72° |
| 2026-05-04 11:58 | 45.87053 | 14.95484 | 35085 ft | 452 kts | 73° |
| 2026-05-04 11:58 | 45.88730 | 15.04183 | 35072 ft | 452 kts | 73° |
| 2026-05-04 11:59 | 45.90421 | 15.12887 | 35079 ft | 452 kts | 73° |
| 2026-05-04 11:59 | 45.92067 | 15.21530 | 35080 ft | 450 kts | 73° |
| 2026-05-04 12:00 | 45.93723 | 15.30200 | 35096 ft | 450 kts | 73° |
| 2026-05-04 12:00 | 45.95376 | 15.38871 | 35085 ft | 450 kts | 73° |
| 2026-05-04 12:01 | 45.97018 | 15.47569 | 35088 ft | 451 kts | 73° |
| 2026-05-04 12:02 | 46.02702 | 15.77955 | 35074 ft | 451 kts | 73° |
| 2026-05-04 12:03 | 46.04321 | 15.86614 | 35086 ft | 451 kts | 73° |
| 2026-05-04 12:03 | 46.05940 | 15.95329 | 35089 ft | 451 kts | 73° |
| 2026-05-04 12:04 | 46.07542 | 16.04050 | 35080 ft | 451 kts | 73° |
| 2026-05-04 12:04 | 46.09138 | 16.12771 | 35076 ft | 448 kts | 73° |
| 2026-05-04 12:05 | 46.10721 | 16.21464 | 35072 ft | 448 kts | 73° |
| 2026-05-04 12:05 | 46.12283 | 16.30100 | 35075 ft | 448 kts | 73° |
| 2026-05-04 12:06 | 46.13850 | 16.38791 | 35079 ft | 448 kts | 73° |
| 2026-05-04 12:06 | 46.15414 | 16.47504 | 35075 ft | 448 kts | 73° |
| 2026-05-04 12:07 | 46.16967 | 16.56215 | 35074 ft | 448 kts | 73° |
| 2026-05-04 12:07 | 46.18510 | 16.64895 | 35080 ft | 446 kts | 73° |
| 2026-05-04 12:08 | 46.20032 | 16.73502 | 35075 ft | 446 kts | 73° |
| 2026-05-04 12:08 | 46.21553 | 16.82185 | 35084 ft | 446 kts | 73° |
| 2026-05-04 12:09 | 46.23078 | 16.90873 | 35077 ft | 446 kts | 73° |
| 2026-05-04 12:09 | 46.25365 | 16.99105 | 35074 ft | 440 kts | 55° |
| 2026-05-04 12:10 | 46.28817 | 17.06307 | 35090 ft | 438 kts | 52° |
| 2026-05-04 12:10 | 46.32302 | 17.13473 | 34340 ft | 434 kts | 52° |
| 2026-05-04 12:11 | 46.34032 | 17.17079 | 33442 ft | 438 kts | 53° |
| 2026-05-04 12:11 | 46.35760 | 17.20704 | 32729 ft | 436 kts | 53° |
| 2026-05-04 12:11 | 46.37480 | 17.24302 | 32152 ft | 434 kts | 53° |
| 2026-05-04 12:11 | 46.39199 | 17.27879 | 31628 ft | 431 kts | 53° |
| 2026-05-04 12:12 | 46.40885 | 17.31385 | 31170 ft | 428 kts | 53° |
| 2026-05-04 12:12 | 46.42568 | 17.34910 | 30585 ft | 424 kts | 53° |
| 2026-05-04 12:12 | 46.44244 | 17.38423 | 29949 ft | 421 kts | 53° |
| 2026-05-04 12:12 | 46.45905 | 17.41902 | 29256 ft | 418 kts | 53° |
| 2026-05-04 12:13 | 46.47543 | 17.45362 | 28623 ft | 414 kts | 53° |
| 2026-05-04 12:14 | 46.58589 | 17.68690 | 24590 ft | 388 kts | 54° |
| 2026-05-04 12:15 | 46.60107 | 17.71907 | 24067 ft | 385 kts | 55° |
| 2026-05-04 12:15 | 46.61604 | 17.75117 | 23525 ft | 382 kts | 55° |
| 2026-05-04 12:15 | 46.63095 | 17.78309 | 22897 ft | 380 kts | 55° |
| 2026-05-04 12:15 | 46.64581 | 17.81463 | 22307 ft | 376 kts | 55° |
| 2026-05-04 12:16 | 46.66034 | 17.84550 | 21738 ft | 374 kts | 55° |
| 2026-05-04 12:16 | 46.67515 | 17.87704 | 21172 ft | 371 kts | 56° |
| 2026-05-04 12:16 | 46.68944 | 17.90748 | 20634 ft | 368 kts | 56° |
| 2026-05-04 12:16 | 46.70384 | 17.93823 | 20083 ft | 366 kts | 56° |
| 2026-05-04 12:17 | 46.71800 | 17.96871 | 19651 ft | 360 kts | 56° |
| 2026-05-04 12:17 | 46.73174 | 17.99853 | 19426 ft | 349 kts | 56° |
| 2026-05-04 12:17 | 46.74508 | 18.02740 | 19187 ft | 338 kts | 56° |
| 2026-05-04 12:17 | 46.75815 | 18.05556 | 18789 ft | 334 kts | 56° |
| 2026-05-04 12:18 | 46.77113 | 18.08350 | 18321 ft | 332 kts | 56° |
| 2026-05-04 12:18 | 46.78406 | 18.11130 | 17803 ft | 330 kts | 57° |
| 2026-05-04 12:18 | 46.79669 | 18.13858 | 17280 ft | 328 kts | 57° |
| 2026-05-04 12:18 | 46.80945 | 18.16615 | 16798 ft | 326 kts | 56° |
| 2026-05-04 12:19 | 46.82210 | 18.19340 | 16333 ft | 323 kts | 56° |
| 2026-05-04 12:19 | 46.83468 | 18.22061 | 15895 ft | 322 kts | 57° |
| 2026-05-04 12:19 | 46.84717 | 18.24746 | 15504 ft | 318 kts | 56° |
| 2026-05-04 12:19 | 46.85953 | 18.27399 | 15163 ft | 314 kts | 57° |
| 2026-05-04 12:20 | 46.87179 | 18.30047 | 15066 ft | 314 kts | 57° |
| 2026-05-04 12:20 | 46.88399 | 18.32695 | 15064 ft | 314 kts | 57° |
| 2026-05-04 12:20 | 46.89619 | 18.35338 | 15072 ft | 314 kts | 57° |
| 2026-05-04 12:20 | 46.90839 | 18.37983 | 14998 ft | 310 kts | 57° |
| 2026-05-04 12:21 | 46.92021 | 18.40550 | 14554 ft | 308 kts | 57° |
| 2026-05-04 12:21 | 46.93218 | 18.43153 | 14074 ft | 308 kts | 57° |
| 2026-05-04 12:21 | 46.94412 | 18.45760 | 13584 ft | 308 kts | 57° |
| 2026-05-04 12:21 | 46.95601 | 18.48360 | 13091 ft | 307 kts | 57° |
| 2026-05-04 12:22 | 46.96786 | 18.50945 | 12587 ft | 306 kts | 57° |
| 2026-05-04 12:22 | 46.97967 | 18.53526 | 12134 ft | 304 kts | 57° |
| 2026-05-04 12:22 | 46.99187 | 18.56040 | 11678 ft | 303 kts | 50° |
| 2026-05-04 12:22 | 47.00772 | 18.58010 | 11208 ft | 304 kts | 33° |
| 2026-05-04 12:23 | 47.02571 | 18.59610 | 10792 ft | 302 kts | 31° |
| 2026-05-04 12:23 | 47.04376 | 18.61161 | 10354 ft | 300 kts | 31° |
| 2026-05-04 12:23 | 47.06178 | 18.62725 | 10029 ft | 301 kts | 32° |
| 2026-05-04 12:23 | 47.07970 | 18.64298 | 9948 ft | 299 kts | 32° |
| 2026-05-04 12:24 | 47.09755 | 18.65874 | 9942 ft | 300 kts | 32° |
| 2026-05-04 12:24 | 47.11545 | 18.67462 | 9955 ft | 302 kts | 32° |
| 2026-05-04 12:24 | 47.13342 | 18.69059 | 9961 ft | 300 kts | 32° |
| 2026-05-04 12:24 | 47.15133 | 18.70651 | 9966 ft | 302 kts | 32° |
| 2026-05-04 12:25 | 47.16904 | 18.72228 | 9919 ft | 299 kts | 32° |
| 2026-05-04 12:25 | 47.18666 | 18.73803 | 9494 ft | 296 kts | 32° |
| 2026-05-04 12:25 | 47.20475 | 18.75235 | 9003 ft | 296 kts | 21° |
| 2026-05-04 12:25 | 47.22439 | 18.76159 | 8513 ft | 297 kts | 13° |
| 2026-05-04 12:26 | 47.24469 | 18.76664 | 8099 ft | 295 kts | 7° |
| 2026-05-04 12:26 | 47.26483 | 18.77114 | 7708 ft | 292 kts | 12° |
| 2026-05-04 12:26 | 47.28442 | 18.77869 | 7299 ft | 290 kts | 15° |
| 2026-05-04 12:26 | 47.30381 | 18.78696 | 6857 ft | 290 kts | 15° |
| 2026-05-04 12:27 | 47.32311 | 18.79519 | 6466 ft | 287 kts | 15° |
| 2026-05-04 12:27 | 47.34231 | 18.80307 | 6088 ft | 288 kts | 14° |
| 2026-05-04 12:27 | 47.36141 | 18.81091 | 5953 ft | 288 kts | 15° |
| 2026-05-04 12:27 | 47.38072 | 18.81886 | 5943 ft | 288 kts | 15° |
| 2026-05-04 12:28 | 47.39991 | 18.82680 | 5946 ft | 286 kts | 15° |
| 2026-05-04 12:28 | 47.41931 | 18.83484 | 5837 ft | 289 kts | 15° |
| 2026-05-04 12:28 | 47.43864 | 18.84286 | 5630 ft | 287 kts | 15° |
| 2026-05-04 12:28 | 47.45784 | 18.85085 | 5381 ft | 287 kts | 15° |
| 2026-05-04 12:29 | 47.47681 | 18.85873 | 5147 ft | 279 kts | 15° |
| 2026-05-04 12:29 | 47.49506 | 18.86633 | 4949 ft | 271 kts | 15° |
| 2026-05-04 12:29 | 47.51295 | 18.87379 | 4923 ft | 256 kts | 16° |
| 2026-05-04 12:29 | 47.52967 | 18.88077 | 4918 ft | 254 kts | 15° |
| 2026-05-04 12:30 | 47.54596 | 18.89075 | 4832 ft | 250 kts | 37° |
| 2026-05-04 12:30 | 47.55901 | 18.90688 | 4589 ft | 240 kts | 45° |
| 2026-05-04 12:30 | 47.57096 | 18.92366 | 4302 ft | 232 kts | 45° |
| 2026-05-04 12:30 | 47.58241 | 18.93998 | 4047 ft | 225 kts | 50° |
| 2026-05-04 12:31 | 47.59258 | 18.95662 | 3927 ft | 211 kts | 51° |
| 2026-05-04 12:31 | 47.60048 | 18.97417 | 3928 ft | 200 kts | 83° |
| 2026-05-04 12:31 | 47.59922 | 18.99316 | 3941 ft | 188 kts | 127° |
| 2026-05-04 12:31 | 47.59017 | 19.00627 | 3982 ft | 183 kts | 150° |
| 2026-05-04 12:32 | 47.57954 | 19.01663 | 4020 ft | 180 kts | 150° |
| 2026-05-04 12:32 | 47.56008 | 19.04071 | 3670 ft | 184 kts | 141° |
| 2026-05-04 12:32 | 47.55136 | 19.05441 | 3438 ft | 181 kts | 138° |
| 2026-05-04 12:33 | 47.54291 | 19.06806 | 3208 ft | 177 kts | 139° |
| 2026-05-04 12:33 | 47.53474 | 19.08131 | 2972 ft | 172 kts | 137° |
| 2026-05-04 12:33 | 47.52678 | 19.09423 | 2747 ft | 167 kts | 139° |
| 2026-05-04 12:33 | 47.51916 | 19.10657 | 2525 ft | 162 kts | 136° |
| 2026-05-04 12:34 | 47.51167 | 19.11872 | 2329 ft | 159 kts | 136° |
| 2026-05-04 12:34 | 47.50412 | 19.13096 | 2118 ft | 158 kts | 135° |
| 2026-05-04 12:34 | 47.49692 | 19.14262 | 1906 ft | 148 kts | 136° |
| 2026-05-04 12:34 | 47.49009 | 19.15368 | 1714 ft | 144 kts | 136° |
| 2026-05-04 12:35 | 47.48337 | 19.16453 | 1502 ft | 143 kts | 137° |
| 2026-05-04 12:35 | 47.47670 | 19.17548 | 1309 ft | 143 kts | 136° |
| 2026-05-04 12:35 | 47.47023 | 19.18666 | 1102 ft | 145 kts | 136° |
| 2026-05-04 12:35 | 47.46326 | 19.19736 | 916 ft | 147 kts | 136° |
| 2026-05-04 12:36 | 47.45639 | 19.20849 | 759 ft | 147 kts | 136° |
| 2026-05-04 12:36 | 47.44865 | 19.22083 | 856 ft | 196 kts | 136° |
| 2026-05-04 12:36 | 47.43895 | 19.23577 | 1650 ft | 201 kts | 135° |
| 2026-05-04 12:36 | 47.42936 | 19.25136 | 2467 ft | 212 kts | 135° |
| 2026-05-04 12:37 | 47.41916 | 19.26835 | 3115 ft | 223 kts | 134° |
| 2026-05-04 12:37 | 47.40796 | 19.28084 | 3640 ft | 197 kts | 163° |
| 2026-05-04 12:37 | 47.39370 | 19.28252 | 3904 ft | 215 kts | 192° |
| 2026-05-04 12:37 | 47.38033 | 19.27282 | 3988 ft | 221 kts | 219° |
| 2026-05-04 12:38 | 47.36907 | 19.25650 | 4033 ft | 232 kts | 225° |
| 2026-05-04 12:38 | 47.35809 | 19.23911 | 4026 ft | 232 kts | 225° |
| 2026-05-04 12:38 | 47.34700 | 19.22144 | 4015 ft | 235 kts | 226° |
| 2026-05-04 12:38 | 47.33854 | 19.20114 | 3984 ft | 236 kts | 251° |
| 2026-05-04 12:39 | 47.33782 | 19.17681 | 3988 ft | 244 kts | 279° |
| 2026-05-04 12:39 | 47.34414 | 19.15330 | 3995 ft | 249 kts | 298° |
| 2026-05-04 12:39 | 47.35559 | 19.13389 | 4050 ft | 254 kts | 314° |
| 2026-05-04 12:39 | 47.36881 | 19.11654 | 4244 ft | 255 kts | 316° |
| 2026-05-04 12:40 | 47.38209 | 19.09933 | 4473 ft | 254 kts | 316° |
| 2026-05-04 12:40 | 47.39517 | 19.08227 | 4932 ft | 256 kts | 316° |
| 2026-05-04 12:40 | 47.40839 | 19.06485 | 5016 ft | 255 kts | 315° |
| 2026-05-04 12:40 | 47.42155 | 19.04726 | 5026 ft | 255 kts | 315° |
| 2026-05-04 12:41 | 47.43469 | 19.02951 | 5004 ft | 257 kts | 315° |
| 2026-05-04 12:41 | 47.44761 | 19.01204 | 4987 ft | 245 kts | 314° |
| 2026-05-04 12:41 | 47.45981 | 18.99565 | 4962 ft | 228 kts | 315° |
| 2026-05-04 12:41 | 47.47123 | 18.98035 | 4950 ft | 220 kts | 314° |
| 2026-05-04 12:42 | 47.48258 | 18.96517 | 4955 ft | 222 kts | 313° |
| 2026-05-04 12:42 | 47.49390 | 18.95006 | 4973 ft | 221 kts | 314° |
| 2026-05-04 12:42 | 47.50525 | 18.93500 | 4967 ft | 209 kts | 313° |
| 2026-05-04 12:42 | 47.51563 | 18.92094 | 4955 ft | 205 kts | 311° |
| 2026-05-04 12:43 | 47.52613 | 18.90658 | 4959 ft | 205 kts | 314° |
| 2026-05-04 12:43 | 47.53821 | 18.89562 | 4911 ft | 207 kts | 345° |
| 2026-05-04 12:43 | 47.55242 | 18.89738 | 4450 ft | 211 kts | 29° |
| 2026-05-04 12:43 | 47.56370 | 18.91043 | 4074 ft | 205 kts | 51° |
| 2026-05-04 12:44 | 47.57353 | 18.92605 | 3972 ft | 209 kts | 49° |
| 2026-05-04 12:44 | 47.58385 | 18.94129 | 3954 ft | 209 kts | 46° |
| 2026-05-04 12:44 | 47.59168 | 18.95875 | 3944 ft | 201 kts | 82° |
| 2026-05-04 12:44 | 47.59076 | 18.97849 | 4016 ft | 190 kts | 115° |
| 2026-05-04 12:45 | 47.58482 | 18.99530 | 3974 ft | 184 kts | 129° |
| 2026-05-04 12:45 | 47.57708 | 19.01045 | 3881 ft | 185 kts | 134° |
| 2026-05-04 12:45 | 47.56894 | 19.02458 | 3763 ft | 173 kts | 136° |
| 2026-05-04 12:45 | 47.56147 | 19.03766 | 3625 ft | 160 kts | 138° |
| 2026-05-04 12:46 | 47.55403 | 19.04989 | 3486 ft | 162 kts | 138° |
| 2026-05-04 12:46 | 47.54644 | 19.06226 | 3307 ft | 164 kts | 137° |
| 2026-05-04 12:46 | 47.53878 | 19.07473 | 3119 ft | 162 kts | 137° |
| 2026-05-04 12:46 | 47.53125 | 19.08696 | 2908 ft | 159 kts | 138° |
| 2026-05-04 12:47 | 47.52382 | 19.09899 | 2679 ft | 160 kts | 136° |
| 2026-05-04 12:47 | 47.51648 | 19.11093 | 2475 ft | 157 kts | 138° |
| 2026-05-04 12:47 | 47.50908 | 19.12288 | 2241 ft | 161 kts | 136° |
| 2026-05-04 12:47 | 47.50148 | 19.13523 | 2075 ft | 162 kts | 136° |
| 2026-05-04 12:48 | 47.49403 | 19.14730 | 1866 ft | 155 kts | 136° |
| 2026-05-04 12:48 | 47.48701 | 19.15867 | 1643 ft | 144 kts | 137° |
| 2026-05-04 12:48 | 47.48028 | 19.16957 | 1438 ft | 143 kts | 138° |
| 2026-05-04 12:48 | 47.47353 | 19.18049 | 1237 ft | 146 kts | 134° |
| 2026-05-04 12:49 | 47.46669 | 19.19158 | 1034 ft | 145 kts | 135° |
| 2026-05-04 12:49 | 47.45994 | 19.20252 | 891 ft | 143 kts | 135° |
| 2026-05-04 12:49 | 47.45329 | 19.21337 | 716 ft | 142 kts | 135° |
| 2026-05-04 12:49 | 47.44664 | 19.22419 | 587 ft | 152 kts | 136° |
| 2026-05-04 12:50 | 47.43891 | 19.23634 | 1601 ft | 166 kts | 136° |
| 2026-05-04 12:50 | 47.43127 | 19.24859 | 2425 ft | 161 kts | 135° |
| 2026-05-04 12:50 | 47.42360 | 19.26116 | 3036 ft | 170 kts | 136° |
| 2026-05-04 12:50 | 47.41536 | 19.27454 | 3592 ft | 183 kts | 135° |
| 2026-05-04 12:51 | 47.40609 | 19.28937 | 3944 ft | 214 kts | 135° |
| 2026-05-04 12:51 | 47.39468 | 19.30405 | 3968 ft | 219 kts | 156° |
| 2026-05-04 12:51 | 47.38010 | 19.30860 | 3998 ft | 218 kts | 186° |
| 2026-05-04 12:51 | 47.36590 | 19.30107 | 4002 ft | 221 kts | 215° |
| 2026-05-04 12:52 | 47.35475 | 19.28589 | 4027 ft | 223 kts | 224° |
| 2026-05-04 12:52 | 47.34413 | 19.26917 | 4015 ft | 223 kts | 225° |
| 2026-05-04 12:52 | 47.33369 | 19.25241 | 4002 ft | 221 kts | 226° |
| 2026-05-04 12:52 | 47.32319 | 19.23546 | 3994 ft | 223 kts | 226° |
| 2026-05-04 12:53 | 47.31398 | 19.21727 | 3975 ft | 223 kts | 244° |
| 2026-05-04 12:53 | 47.31213 | 19.19455 | 4303 ft | 233 kts | 276° |
| 2026-05-04 12:53 | 47.31860 | 19.17227 | 4807 ft | 243 kts | 302° |
| 2026-05-04 12:53 | 47.32944 | 19.15303 | 4980 ft | 245 kts | 308° |
| 2026-05-04 12:54 | 47.34080 | 19.13466 | 5015 ft | 245 kts | 309° |
| 2026-05-04 12:54 | 47.35234 | 19.11615 | 5010 ft | 245 kts | 309° |
| 2026-05-04 12:54 | 47.36389 | 19.09766 | 5001 ft | 245 kts | 309° |
| 2026-05-04 12:54 | 47.37545 | 19.07912 | 4992 ft | 245 kts | 310° |
| 2026-05-04 12:55 | 47.38699 | 19.06064 | 4983 ft | 243 kts | 309° |
| 2026-05-04 12:55 | 47.39810 | 19.04287 | 4972 ft | 228 kts | 309° |
| 2026-05-04 12:55 | 47.40855 | 19.02623 | 4957 ft | 219 kts | 310° |
| 2026-05-04 12:55 | 47.42040 | 19.01177 | 4966 ft | 222 kts | 320° |
| 2026-05-04 12:56 | 47.43284 | 18.99834 | 4973 ft | 220 kts | 321° |
| 2026-05-04 12:56 | 47.44506 | 18.98511 | 4966 ft | 221 kts | 321° |
| 2026-05-04 12:56 | 47.45746 | 18.97170 | 4986 ft | 222 kts | 321° |
| 2026-05-04 12:56 | 47.46989 | 18.95830 | 4987 ft | 222 kts | 320° |
| 2026-05-04 12:57 | 47.48244 | 18.94493 | 4978 ft | 221 kts | 321° |
| 2026-05-04 12:57 | 47.49483 | 18.93156 | 4960 ft | 221 kts | 320° |
| 2026-05-04 12:57 | 47.50691 | 18.91877 | 4959 ft | 207 kts | 320° |
| 2026-05-04 12:57 | 47.51883 | 18.90642 | 4954 ft | 210 kts | 320° |
| 2026-05-04 12:58 | 47.53129 | 18.89498 | 4924 ft | 213 kts | 335° |
| 2026-05-04 12:58 | 47.54561 | 18.89143 | 4717 ft | 213 kts | 7° |
| 2026-05-04 12:58 | 47.55934 | 18.89871 | 4486 ft | 207 kts | 39° |
| 2026-05-04 12:58 | 47.56943 | 18.91338 | 4240 ft | 210 kts | 52° |
| 2026-05-04 12:59 | 47.57884 | 18.92972 | 4011 ft | 208 kts | 52° |
| 2026-05-04 12:59 | 47.58855 | 18.94557 | 3942 ft | 209 kts | 49° |
| 2026-05-04 12:59 | 47.59721 | 18.96236 | 3935 ft | 200 kts | 74° |
| 2026-05-04 12:59 | 47.59769 | 18.98188 | 3870 ft | 190 kts | 118° |
| 2026-05-04 13:00 | 47.59028 | 18.99734 | 3772 ft | 182 kts | 141° |
| 2026-05-04 13:00 | 47.58107 | 19.00995 | 3653 ft | 179 kts | 144° |
| 2026-05-04 13:00 | 47.57180 | 19.02250 | 3534 ft | 182 kts | 141° |
| 2026-05-04 13:00 | 47.56286 | 19.03577 | 3456 ft | 179 kts | 137° |
| 2026-05-04 13:01 | 47.55510 | 19.04830 | 3474 ft | 161 kts | 139° |
| 2026-05-04 13:01 | 47.54743 | 19.06070 | 3339 ft | 165 kts | 137° |
| 2026-05-04 13:01 | 47.53981 | 19.07305 | 3161 ft | 161 kts | 137° |
| 2026-05-04 13:01 | 47.53228 | 19.08529 | 2948 ft | 159 kts | 138° |
| 2026-05-04 13:02 | 47.52488 | 19.09728 | 2729 ft | 160 kts | 136° |
| 2026-05-04 13:02 | 47.51740 | 19.10943 | 2515 ft | 159 kts | 139° |
| 2026-05-04 13:02 | 47.50986 | 19.12164 | 2284 ft | 161 kts | 137° |
| 2026-05-04 13:02 | 47.50234 | 19.13383 | 2138 ft | 158 kts | 137° |
| 2026-05-04 13:03 | 47.49535 | 19.14519 | 1899 ft | 139 kts | 137° |
| 2026-05-04 13:03 | 47.48914 | 19.15522 | 1689 ft | 131 kts | 137° |
| 2026-05-04 13:03 | 47.48300 | 19.16516 | 1511 ft | 132 kts | 136° |
| 2026-05-04 13:03 | 47.47675 | 19.17534 | 1342 ft | 135 kts | 134° |
| 2026-05-04 13:04 | 47.47063 | 19.18571 | 1175 ft | 133 kts | 134° |
| 2026-05-04 13:04 | 47.46462 | 19.19571 | 969 ft | 130 kts | 137° |
| 2026-05-04 13:04 | 47.45821 | 19.20518 | 773 ft | 130 kts | 136° |
| 2026-05-04 13:04 | 47.45233 | 19.21500 | 594 ft | 127 kts | 137° |
| 2026-05-04 13:05 | 47.44643 | 19.22441 | 461 ft | 123 kts | 134° |
| 2026-05-04 13:05 | 47.44177 | 19.23205 | 459 ft | 72 kts | 134° |
| 2026-05-04 13:05 | 47.43922 | 19.23614 | 461 ft | 50 kts | 133° |
| 2026-05-04 13:05 | 47.43748 | 19.23922 | 460 ft | 27 kts | 123° |
| 2026-05-04 13:06 | 47.43682 | 19.24182 | 460 ft | 28 kts | 103° |
| 2026-05-04 13:06 | 47.43649 | 19.24392 | 462 ft | 15 kts | 106° |
| 2026-05-04 13:06 | 47.43598 | 19.24538 | 462 ft | 17 kts | 128° |
| 2026-05-04 13:06 | 47.43530 | 19.24651 | 462 ft | 12 kts | 132° |
| 2026-05-04 13:07 | 47.43470 | 19.24747 | 462 ft | 14 kts | 133° |
| 2026-05-04 13:07 | 47.43402 | 19.24856 | 462 ft | 15 kts | 133° |
| 2026-05-04 13:07 | 47.43325 | 19.24979 | 462 ft | 17 kts | 133° |
| 2026-05-04 13:07 | 47.43252 | 19.25097 | 463 ft | 9 kts | 132° |
| 2026-05-04 13:08 | 47.43228 | 19.25192 | 463 ft | 12 kts | 78° |
| 2026-05-04 13:08 | 47.43275 | 19.25298 | 463 ft | 13 kts | 39° |
| 2026-05-04 13:08 | 47.43350 | 19.25395 | 463 ft | 15 kts | 42° |
| 2026-05-04 13:08 | 47.43433 | 19.25507 | 463 ft | 17 kts | 42° |
| 2026-05-04 13:09 | 47.43525 | 19.25629 | 463 ft | 19 kts | 42° |
| 2026-05-04 13:09 | 47.43625 | 19.25763 | 462 ft | 20 kts | 42° |
| 2026-05-04 13:09 | 47.43709 | 19.25876 | 463 ft | 9 kts | 42° |
| 2026-05-04 13:09 | 47.43734 | 19.25962 | 463 ft | 11 kts | 107° |
| 2026-05-04 13:10 | 47.43684 | 19.26057 | 463 ft | 13 kts | 123° |
| 2026-05-04 13:10 | 47.43677 | 19.26196 | 463 ft | 15 kts | 86° |
| 2026-05-04 13:10 | 47.43665 | 19.26350 | 462 ft | 16 kts | 127° |
| 2026-05-04 13:10 | 47.43589 | 19.26473 | 463 ft | 13 kts | 132° |
| 2026-05-04 13:11 | 47.43544 | 19.26545 | 463 ft | 4 kts | 133° |
| 2026-05-04 13:11 | 47.43518 | 19.26574 | 463 ft | 6 kts | 181° |
| 2026-05-04 13:11 | 47.43491 | 19.26549 | 463 ft | 3 kts | 221° |
| 2026-05-04 13:11 | 47.43482 | 19.26537 | 463 ft | 0 kts | 221° |